< Typhoon 197204 1972 Season Typhoon 197206 >
Typhoon 197205 (ORA)
General InformationTrack Information on Google Maps || Disaster Info.ResourceGoogle EarthGE AnimationAtom FeedGeoJSON
Detalied Best Track (Time Zone = UTC)
Year Month Day Hour Lat. Long. Pressure (hPa) Wind (kt) Class Image Chart
1972 6 22 00 10.4 135.9 1008 0 2 -- Chart
1972 6 22 06 10.4 134.6 1006 0 2 -- Chart
1972 6 22 12 10.5 133.4 1006 0 2 -- Chart
1972 6 22 18 10.6 132.3 1006 0 2 -- Chart
1972 6 23 00 10.8 131.2 1006 0 2 -- Chart
1972 6 23 06 10.9 130.2 1004 0 2 -- Chart
1972 6 23 12 11.1 129.1 998 0 2 -- Chart
1972 6 23 18 11.2 128.3 990 0 9 -- Chart
1972 6 24 00 11.3 127.3 985 0 9 -- Chart
1972 6 24 06 11.7 126.1 980 0 9 -- Chart
1972 6 24 12 12.7 125.0 980 0 9 -- Chart
1972 6 24 18 13.3 123.5 985 0 9 -- Chart
1972 6 25 00 13.9 121.8 985 0 9 -- Chart
1972 6 25 06 14.7 120.2 985 0 9 -- Chart
1972 6 25 12 15.6 118.6 985 0 9 -- Chart
1972 6 25 18 16.6 116.9 985 0 9 -- Chart
1972 6 26 00 17.8 115.6 985 0 9 -- Chart
1972 6 26 06 18.4 114.2 985 0 9 -- Chart
1972 6 26 12 19.2 113.2 985 0 9 -- Chart
1972 6 26 18 19.7 112.3 990 0 9 -- Chart
1972 6 27 00 20.4 111.6 994 0 9 -- Chart
1972 6 27 06 21.3 111.2 996 0 9 -- Chart
1972 6 27 12 22.3 110.8 998 0 9 -- Chart
1972 6 27 18 23.0 110.9 1000 0 2 -- Chart
Japan Meteorological Agency Best Track Data | Correction Date : 1989-06-01
< Typhoon 197204 1972 Season Typhoon 197206 >

Help